CEST,Max TemperatureF,Mean TemperatureF,Min TemperatureF,Max Dew PointF,MeanDew PointF,Min DewpointF,Max Humidity, Mean Humidity, Min Humidity, Max Sea Level PressureIn, Mean Sea Level PressureIn, Min Sea Level PressureIn, Max VisibilityMiles, Mean VisibilityMiles, Min VisibilityMiles, Max Wind SpeedMPH, Mean Wind SpeedMPH, Max Gust SpeedMPH,PrecipitationIn, CloudCover, Events, WindDirDegrees
2013-3-1,41,37,33,37,33,30,100,81,58,30.37,30.33,30.30,12,6,1,12,6,,0.00,8,Fog,20
2013-3-2,40,38,35,32,30,28,87,74,60,30.36,30.30,30.27,15,7,6,8,5,,0.00,8,,4
2013-3-3,44,37,30,41,35,28,100,84,64,30.27,30.23,30.18,16,6,1,10,5,,0.00,8,Rain,215
2013-3-4,51,39,27,36,31,27,93,69,40,30.19,30.02,29.86,14,7,5,14,8,,0.00,6,,104
2013-3-5,61,48,35,37,33,28,81,56,27,29.86,29.76,29.68,17,7,6,15,7,24,0.00,,,149
2013-3-6,58,46,35,45,38,34,87,66,46,29.68,29.60,29.53,13,6,4,8,4,,0.00,8,,80
2013-3-7,52,48,43,45,39,36,93,69,52,29.55,29.49,29.44,10,6,3,12,8,,0.03,7,Rain,86
2013-3-8,56,50,45,50,46,42,93,85,67,29.49,29.46,29.44,4,3,2,14,9,,0.12,7,Rain,83
2013-3-9,44,40,37,45,41,36,100,96,91,29.54,29.47,29.42,12,5,1,14,9,,0.55,8,Rain,301
2013-3-10,34,32,30,36,29,21,100,83,64,29.74,29.63,29.53,12,6,1,18,10,,0.00,8,Rain-Snow,28
2013-3-11,30,29,28,23,21,19,80,71,57,29.79,29.76,29.74,19,7,6,23,17,32,0.00,6,Rain-Snow,53
2013-3-12,33,28,23,21,18,14,86,64,37,29.78,29.73,29.71,19,6,6,25,18,31,0.00,4,,40
2013-3-13,42,31,20,32,26,18,93,79,50,29.83,29.73,29.68,11,6,1,12,4,,0.00,5,Snow,278
2013-3-14,39,32,24,30,26,21,93,77,48,29.99,29.91,29.80,19,7,5,12,6,,0.01,4,Snow,335
2013-3-15,39,32,24,34,29,23,100,82,65,29.98,29.89,29.80,18,6,2,21,10,31,0.12,6,Rain-Snow,181
2013-3-16,45,40,34,34,30,21,81,62,33,29.80,29.66,29.53,19,7,6,23,17,34,0.01,6,Rain,166
2013-3-17,49,44,38,40,37,32,88,76,57,29.52,29.39,29.24,19,6,5,17,13,28,0.04,7,Rain,143
2013-3-18,48,42,35,39,37,34,93,83,62,29.33,29.29,29.24,17,7,4,18,11,,0.00,6,Rain,196
2013-3-19,43,36,29,39,35,30,100,90,74,29.56,29.44,29.33,7,5,1,13,5,,0.04,7,Rain,109
2013-3-20,37,34,32,34,29,25,93,79,64,29.98,29.69,29.56,12,6,2,16,11,,0.00,7,,45
2013-3-21,39,34,28,32,27,25,93,75,51,30.12,30.07,29.98,19,7,6,10,4,,0.00,7,,14
2013-3-22,41,34,28,28,26,23,93,74,53,30.13,30.01,29.95,13,6,3,26,15,38,0.00,3,,85
2013-3-23,35,32,30,23,20,12,69,58,35,29.99,29.95,29.92,14,7,6,28,23,39,0.00,3,,86
2013-3-24,36,31,26,13,8,1,55,37,14,30.01,29.97,29.95,6,6,6,27,21,36,0.00,5,,80
2013-3-25,41,34,28,18,14,12,55,45,21,30.02,29.97,29.92,19,7,6,25,19,34,0.00,8,,74
2013-3-26,42,34,26,18,16,14,64,48,22,29.98,29.93,29.89,19,7,6,23,15,,0.00,,,74
2013-3-27,43,33,23,19,18,14,80,54,23,29.93,29.87,29.83,19,7,6,17,12,,0.00,,,77
2013-3-28,39,32,25,27,22,18,80,65,41,29.87,29.84,29.80,16,6,4,16,10,,0.00,5,Snow,44
2013-3-29,38,30,22,32,27,23,100,83,51,29.85,29.81,29.77,7,4,1,8,4,,0.00,6,Rain-Snow,7
2013-3-30,40,30,21,32,27,23,100,82,48,29.92,29.82,29.77,19,5,0,13,5,,0.00,5,Fog,16
2013-3-31,40,32,24,28,26,25,100,74,47,29.96,29.94,29.92,19,7,6,13,6,,0.00,5,Snow,35
2013-4-1,,,,,,,,,,,,,,,,,,,,,,